Time,TemperatureF,DewpointF,PressureIn,WindDirection,WindDirectionDegrees,WindSpeedMPH,WindSpeedGustMPH,Humidity,HourlyPrecipIn,Conditions,Clouds,dailyrainin,SoftwareType,DateUTC
2013-04-09 00:01:00,59.2,47.0,29.86,North,-999,-999.0,-999.0,64,-99.99,,,-99.99,open2300-1.11,2013-04-09 04:01:00,
2013-04-09 00:02:00,59.2,47.0,29.87,North,-999,-999.0,-999.0,64,-99.99,,,-99.99,open2300-1.11,2013-04-09 04:02:00,
2013-04-09 00:04:00,59.2,47.0,29.86,North,-999,-999.0,-999.0,64,-99.99,,,-99.99,open2300-1.11,2013-04-09 04:04:00,
2013-04-09 00:09:00,59.2,47.0,29.87,North,-999,-999.0,-999.0,64,-99.99,,,-99.99,open2300-1.11,2013-04-09 04:09:00,
2013-04-09 00:14:00,59.2,47.0,29.86,North,-999,-999.0,-999.0,64,-99.99,,,-99.99,open2300-1.11,2013-04-09 04:14:00,
2013-04-09 00:20:00,59.2,47.0,29.86,North,-999,-999.0,-999.0,64,-99.99,,,-99.99,open2300-1.11,2013-04-09 04:20:00,
2013-04-09 00:25:00,59.0,46.8,29.86,North,-999,-999.0,-999.0,64,-99.99,,,-99.99,open2300-1.11,2013-04-09 04:25:00,
2013-04-09 00:32:00,58.8,47.0,29.86,North,-999,-999.0,-999.0,65,-99.99,,,-99.99,open2300-1.11,2013-04-09 04:32:00,
2013-04-09 00:38:00,58.8,47.0,29.86,North,-999,-999.0,-999.0,65,-99.99,,,-99.99,open2300-1.11,2013-04-09 04:38:00,
2013-04-09 00:44:00,58.8,47.0,29.86,North,-999,-999.0,-999.0,65,-99.99,,,-99.99,open2300-1.11,2013-04-09 04:44:00,
2013-04-09 00:49:00,58.8,47.4,29.86,North,-999,-999.0,-999.0,66,-99.99,,,-99.99,open2300-1.11,2013-04-09 04:49:00,
2013-04-09 00:56:00,58.8,47.9,29.86,North,-999,-999.0,-999.0,67,-99.99,,,-99.99,open2300-1.11,2013-04-09 04:56:00,
2013-04-09 01:04:00,59.4,48.8,29.85,North,-999,-999.0,-999.0,68,-99.99,,,-99.99,open2300-1.11,2013-04-09 05:04:00,
2013-04-09 01:10:00,59.4,48.8,29.85,North,-999,-999.0,-999.0,68,-99.99,,,-99.99,open2300-1.11,2013-04-09 05:10:00,
2013-04-09 01:16:00,59.5,49.0,29.85,North,-999,-999.0,-999.0,68,-99.99,,,-99.99,open2300-1.11,2013-04-09 05:16:00,
2013-04-09 01:22:00,59.4,48.8,29.85,North,-999,-999.0,-999.0,68,-99.99,,,-99.99,open2300-1.11,2013-04-09 05:22:00,
2013-04-09 01:29:00,59.2,48.6,29.85,North,-999,-999.0,-999.0,68,-99.99,,,-99.99,open2300-1.11,2013-04-09 05:29:00,
2013-04-09 01:35:00,59.2,48.6,29.86,North,-999,-999.0,-999.0,68,-99.99,,,-99.99,open2300-1.11,2013-04-09 05:35:00,
2013-04-09 01:41:00,58.8,48.7,29.85,North,-999,-999.0,-999.0,69,-99.99,,,-99.99,open2300-1.11,2013-04-09 05:41:00,
2013-04-09 01:47:00,58.8,48.7,29.85,North,-999,-999.0,-999.0,69,-99.99,,,-99.99,open2300-1.11,2013-04-09 05:47:00,
2013-04-09 01:52:00,58.8,48.7,29.84,North,-999,-999.0,-999.0,69,-99.99,,,-99.99,open2300-1.11,2013-04-09 05:52:00,
2013-04-09 01:58:00,58.8,49.1,29.84,North,-999,-999.0,-999.0,70,-99.99,,,-99.99,open2300-1.11,2013-04-09 05:58:00,
2013-04-09 02:04:00,58.8,49.1,29.84,North,-999,-999.0,-999.0,70,-99.99,,,-99.99,open2300-1.11,2013-04-09 06:04:00,
2013-04-09 02:10:00,58.8,49.1,29.84,North,-999,-999.0,-999.0,70,-99.99,,,-99.99,open2300-1.11,2013-04-09 06:10:00,
2013-04-09 02:16:00,58.6,48.9,29.84,North,-999,-999.0,-999.0,70,-99.99,,,-99.99,open2300-1.11,2013-04-09 06:16:00,
2013-04-09 02:21:00,58.6,48.9,29.84,North,-999,-999.0,-999.0,70,-99.99,,,-99.99,open2300-1.11,2013-04-09 06:21:00,
2013-04-09 02:27:00,58.5,49.1,29.83,North,-999,-999.0,-999.0,71,-99.99,,,-99.99,open2300-1.11,2013-04-09 06:27:00,
2013-04-09 02:34:00,57.9,48.6,29.82,North,-999,-999.0,-999.0,71,-99.99,,,-99.99,open2300-1.11,2013-04-09 06:34:00,
2013-04-09 02:40:00,57.6,48.2,29.82,North,-999,-999.0,-999.0,71,-99.99,,,-99.99,open2300-1.11,2013-04-09 06:40:00,
2013-04-09 02:47:00,57.2,48.2,29.82,North,-999,-999.0,-999.0,72,-99.99,,,-99.99,open2300-1.11,2013-04-09 06:47:00,
2013-04-09 02:52:00,57.0,48.4,29.82,North,-999,-999.0,-999.0,73,-99.99,,,-99.99,open2300-1.11,2013-04-09 06:52:00,
2013-04-09 02:58:00,57.2,48.9,29.82,North,-999,-999.0,-999.0,74,-99.99,,,-99.99,open2300-1.11,2013-04-09 06:58:00,
2013-04-09 03:03:00,57.0,48.7,29.82,North,-999,-999.0,-999.0,74,-99.99,,,-99.99,open2300-1.11,2013-04-09 07:03:00,
2013-04-09 03:09:00,56.8,48.2,29.82,North,-999,-999.0,-999.0,73,-99.99,,,-99.99,open2300-1.11,2013-04-09 07:09:00,
2013-04-09 03:14:00,56.8,48.6,29.82,North,-999,-999.0,-999.0,74,-99.99,,,-99.99,open2300-1.11,2013-04-09 07:14:00,
2013-04-09 03:20:00,57.0,48.7,29.83,North,-999,-999.0,-999.0,74,-99.99,,,-99.99,open2300-1.11,2013-04-09 07:20:00,
2013-04-09 03:26:00,57.2,48.9,29.82,North,-999,-999.0,-999.0,74,-99.99,,,-99.99,open2300-1.11,2013-04-09 07:26:00,
2013-04-09 03:31:00,57.0,49.1,29.82,North,-999,-999.0,-999.0,75,-99.99,,,-99.99,open2300-1.11,2013-04-09 07:31:00,
2013-04-09 03:36:00,57.0,48.7,29.83,North,-999,-999.0,-999.0,74,-99.99,,,-99.99,open2300-1.11,2013-04-09 07:36:00,
2013-04-09 03:42:00,56.8,48.6,29.82,North,-999,-999.0,-999.0,74,-99.99,,,-99.99,open2300-1.11,2013-04-09 07:42:00,
2013-04-09 03:48:00,56.5,48.6,29.82,North,-999,-999.0,-999.0,75,-99.99,,,-99.99,open2300-1.11,2013-04-09 07:48:00,
2013-04-09 03:54:00,56.5,48.6,29.82,North,-999,-999.0,-999.0,75,-99.99,,,-99.99,open2300-1.11,2013-04-09 07:54:00,
2013-04-09 04:01:00,56.5,48.6,29.82,North,-999,-999.0,-999.0,75,-99.99,,,-99.99,open2300-1.11,2013-04-09 08:01:00,
2013-04-09 04:07:00,56.1,48.2,29.82,North,-999,-999.0,-999.0,75,-99.99,,,-99.99,open2300-1.11,2013-04-09 08:07:00,
2013-04-09 04:13:00,55.9,48.1,29.82,North,-999,-999.0,-999.0,75,-99.99,,,-99.99,open2300-1.11,2013-04-09 08:13:00,
2013-04-09 04:19:00,55.8,47.9,29.82,North,-999,-999.0,-999.0,75,-99.99,,,-99.99,open2300-1.11,2013-04-09 08:19:00,
2013-04-09 04:24:00,55.2,47.7,29.82,North,-999,-999.0,-999.0,76,-99.99,,,-99.99,open2300-1.11,2013-04-09 08:24:00,
2013-04-09 04:30:00,55.0,47.6,29.82,North,-999,-999.0,-999.0,76,-99.99,,,-99.99,open2300-1.11,2013-04-09 08:30:00,
2013-04-09 04:36:00,54.9,47.8,29.83,North,-999,-999.0,-999.0,77,-99.99,,,-99.99,open2300-1.11,2013-04-09 08:36:00,
2013-04-09 04:42:00,54.7,47.6,29.83,North,-999,-999.0,-999.0,77,-99.99,,,-99.99,open2300-1.11,2013-04-09 08:42:00,
2013-04-09 04:47:00,54.5,47.8,29.83,North,-999,-999.0,-999.0,78,-99.99,,,-99.99,open2300-1.11,2013-04-09 08:47:00,
2013-04-09 04:53:00,54.3,47.6,29.83,North,-999,-999.0,-999.0,78,-99.99,,,-99.99,open2300-1.11,2013-04-09 08:53:00,
2013-04-09 04:59:00,54.0,47.3,29.82,North,-999,-999.0,-999.0,78,-99.99,,,-99.99,open2300-1.11,2013-04-09 08:59:00,
2013-04-09 05:05:00,53.8,47.1,29.83,North,-999,-999.0,-999.0,78,-99.99,,,-99.99,open2300-1.11,2013-04-09 09:05:00,
2013-04-09 05:11:00,53.4,47.1,29.83,North,-999,-999.0,-999.0,79,-99.99,,,-99.99,open2300-1.11,2013-04-09 09:11:00,
2013-04-09 05:17:00,53.2,46.9,29.83,North,-999,-999.0,-999.0,79,-99.99,,,-99.99,open2300-1.11,2013-04-09 09:17:00,
2013-04-09 05:24:00,53.2,47.3,29.83,North,-999,-999.0,-999.0,80,-99.99,,,-99.99,open2300-1.11,2013-04-09 09:24:00,
2013-04-09 05:29:00,52.9,46.9,29.83,North,-999,-999.0,-999.0,80,-99.99,,,-99.99,open2300-1.11,2013-04-09 09:29:00,
2013-04-09 05:35:00,52.9,46.9,29.83,North,-999,-999.0,-999.0,80,-99.99,,,-99.99,open2300-1.11,2013-04-09 09:35:00,
2013-04-09 05:41:00,52.7,47.1,29.83,North,-999,-999.0,-999.0,81,-99.99,,,-99.99,open2300-1.11,2013-04-09 09:41:00,
2013-04-09 05:46:00,52.5,46.9,29.83,North,-999,-999.0,-999.0,81,-99.99,,,-99.99,open2300-1.11,2013-04-09 09:46:00,
2013-04-09 05:52:00,52.5,46.9,29.84,North,-999,-999.0,-999.0,81,-99.99,,,-99.99,open2300-1.11,2013-04-09 09:52:00,
2013-04-09 05:57:00,52.5,46.9,29.83,North,-999,-999.0,-999.0,81,-99.99,,,-99.99,open2300-1.11,2013-04-09 09:57:00,
2013-04-09 06:04:00,52.2,46.5,29.84,North,-999,-999.0,-999.0,81,-99.99,,,-99.99,open2300-1.11,2013-04-09 10:04:00,
2013-04-09 06:10:00,52.0,46.7,29.84,North,-999,-999.0,-999.0,82,-99.99,,,-99.99,open2300-1.11,2013-04-09 10:10:00,
2013-04-09 06:17:00,52.0,47.0,29.84,North,-999,-999.0,-999.0,83,-99.99,,,-99.99,open2300-1.11,2013-04-09 10:17:00,
2013-04-09 06:24:00,51.6,46.6,29.84,North,-999,-999.0,-999.0,83,-99.99,,,-99.99,open2300-1.11,2013-04-09 10:24:00,
2013-04-09 06:29:00,51.8,46.8,29.85,North,-999,-999.0,-999.0,83,-99.99,,,-99.99,open2300-1.11,2013-04-09 10:29:00,
2013-04-09 06:37:00,51.8,46.8,29.85,North,-999,-999.0,-999.0,83,-99.99,,,-99.99,open2300-1.11,2013-04-09 10:37:00,
2013-04-09 06:43:00,51.6,46.6,29.85,North,-999,-999.0,-999.0,83,-99.99,,,-99.99,open2300-1.11,2013-04-09 10:43:00,
2013-04-09 06:49:00,51.8,47.1,29.85,North,-999,-999.0,-999.0,84,-99.99,,,-99.99,open2300-1.11,2013-04-09 10:49:00,
2013-04-09 06:54:00,51.8,47.1,29.86,North,-999,-999.0,-999.0,84,-99.99,,,-99.99,open2300-1.11,2013-04-09 10:54:00,
2013-04-09 07:00:00,51.8,47.1,29.85,North,-999,-999.0,-999.0,84,-99.99,,,-99.99,open2300-1.11,2013-04-09 11:00:00,
2013-04-09 07:05:00,52.0,47.3,29.86,North,-999,-999.0,-999.0,84,-99.99,,,-99.99,open2300-1.11,2013-04-09 11:05:00,
2013-04-09 07:12:00,52.2,47.4,29.86,North,-999,-999.0,-999.0,84,-99.99,,,-99.99,open2300-1.11,2013-04-09 11:12:00,
2013-04-09 07:17:00,52.3,47.6,29.86,North,-999,-999.0,-999.0,84,-99.99,,,-99.99,open2300-1.11,2013-04-09 11:17:00,
2013-04-09 07:23:00,52.5,47.8,29.86,North,-999,-999.0,-999.0,84,-99.99,,,-99.99,open2300-1.11,2013-04-09 11:23:00,
2013-04-09 07:29:00,52.9,48.2,29.87,North,-999,-999.0,-999.0,84,-99.99,,,-99.99,open2300-1.11,2013-04-09 11:29:00,
2013-04-09 07:34:00,53.4,48.7,29.87,North,-999,-999.0,-999.0,84,-99.99,,,-99.99,open2300-1.11,2013-04-09 11:34:00,
2013-04-09 07:40:00,53.8,49.0,29.87,North,-999,-999.0,-999.0,84,-99.99,,,-99.99,open2300-1.11,2013-04-09 11:40:00,
2013-04-09 07:47:00,54.3,49.5,29.87,North,-999,-999.0,-999.0,84,-99.99,,,-99.99,open2300-1.11,2013-04-09 11:47:00,
2013-04-09 07:53:00,55.0,49.9,29.87,North,-999,-999.0,-999.0,83,-99.99,,,-99.99,open2300-1.11,2013-04-09 11:53:00,
2013-04-09 07:59:00,55.9,50.8,29.87,North,-999,-999.0,-999.0,83,-99.99,,,-99.99,open2300-1.11,2013-04-09 11:59:00,
2013-04-09 08:06:00,56.8,51.4,29.88,North,-999,-999.0,-999.0,82,-99.99,,,-99.99,open2300-1.11,2013-04-09 12:06:00,
2013-04-09 08:12:00,57.7,51.9,29.87,North,-999,-999.0,-999.0,81,-99.99,,,-99.99,open2300-1.11,2013-04-09 12:12:00,
2013-04-09 08:18:00,58.6,52.5,29.87,North,-999,-999.0,-999.0,80,-99.99,,,-99.99,open2300-1.11,2013-04-09 12:18:00,
2013-04-09 08:24:00,58.8,52.3,29.87,North,-999,-999.0,-999.0,79,-99.99,,,-99.99,open2300-1.11,2013-04-09 12:24:00,
2013-04-09 08:30:00,59.7,52.9,29.87,North,-999,-999.0,-999.0,78,-99.99,,,-99.99,open2300-1.11,2013-04-09 12:30:00,
2013-04-09 08:37:00,61.2,53.6,29.87,North,-999,-999.0,-999.0,76,-99.99,,,-99.99,open2300-1.11,2013-04-09 12:37:00,
2013-04-09 08:43:00,61.9,53.8,29.87,North,-999,-999.0,-999.0,75,-99.99,,,-99.99,open2300-1.11,2013-04-09 12:43:00,
2013-04-09 08:49:00,62.8,54.3,29.86,North,-999,-999.0,-999.0,74,-99.99,,,-99.99,open2300-1.11,2013-04-09 12:49:00,
2013-04-09 08:55:00,65.3,56.4,29.86,North,-999,-999.0,-999.0,73,-99.99,,,-99.99,open2300-1.11,2013-04-09 12:55:00,
2013-04-09 09:02:00,71.2,58.8,29.87,North,-999,-999.0,-999.0,65,-99.99,,,-99.99,open2300-1.11,2013-04-09 13:02:00,
2013-04-09 09:07:00,75.6,58.8,29.87,North,-999,-999.0,-999.0,56,-99.99,,,-99.99,open2300-1.11,2013-04-09 13:07:00,
2013-04-09 09:15:00,79.0,58.8,29.86,North,-999,-999.0,-999.0,50,-99.99,,,-99.99,open2300-1.11,2013-04-09 13:15:00,
2013-04-09 09:21:00,81.1,58.9,29.86,North,-999,-999.0,-999.0,47,-99.99,,,-99.99,open2300-1.11,2013-04-09 13:21:00,
2013-04-09 09:27:00,81.0,56.3,29.86,North,-999,-999.0,-999.0,43,-99.99,,,-99.99,open2300-1.11,2013-04-09 13:27:00,
2013-04-09 09:32:00,80.8,57.4,29.86,North,-999,-999.0,-999.0,45,-99.99,,,-99.99,open2300-1.11,2013-04-09 13:32:00,
2013-04-09 09:38:00,81.5,57.4,29.86,North,-999,-999.0,-999.0,44,-99.99,,,-99.99,open2300-1.11,2013-04-09 13:38:00,
2013-04-09 09:44:00,82.6,56.5,29.86,North,-999,-999.0,-999.0,41,-99.99,,,-99.99,open2300-1.11,2013-04-09 13:44:00,
2013-04-09 09:50:00,82.6,55.1,29.86,North,-999,-999.0,-999.0,39,-99.99,,,-99.99,open2300-1.11,2013-04-09 13:50:00,
2013-04-09 09:57:00,82.6,56.5,29.86,North,-999,-999.0,-999.0,41,-99.99,,,-99.99,open2300-1.11,2013-04-09 13:57:00,
2013-04-09 10:02:00,83.3,55.8,29.86,North,-999,-999.0,-999.0,39,-99.99,,,-99.99,open2300-1.11,2013-04-09 14:02:00,
2013-04-09 10:07:00,82.6,55.1,29.86,North,-999,-999.0,-999.0,39,-99.99,,,-99.99,open2300-1.11,2013-04-09 14:07:00,
2013-04-09 10:13:00,82.2,54.8,29.86,North,-999,-999.0,-999.0,39,-99.99,,,-99.99,open2300-1.11,2013-04-09 14:13:00,
2013-04-09 10:19:00,82.6,55.1,29.86,North,-999,-999.0,-999.0,39,-99.99,,,-99.99,open2300-1.11,2013-04-09 14:19:00,
2013-04-09 10:24:00,83.1,54.8,29.85,North,-999,-999.0,-999.0,38,-99.99,,,-99.99,open2300-1.11,2013-04-09 14:24:00,
2013-04-09 10:31:00,83.5,54.4,29.86,North,-999,-999.0,-999.0,37,-99.99,,,-99.99,open2300-1.11,2013-04-09 14:31:00,
2013-04-09 10:37:00,83.3,54.2,29.86,North,-999,-999.0,-999.0,37,-99.99,,,-99.99,open2300-1.11,2013-04-09 14:37:00,
2013-04-09 10:44:00,83.1,54.0,29.86,North,-999,-999.0,-999.0,37,-99.99,,,-99.99,open2300-1.11,2013-04-09 14:44:00,
2013-04-09 10:49:00,82.9,53.1,29.86,North,-999,-999.0,-999.0,36,-99.99,,,-99.99,open2300-1.11,2013-04-09 14:49:00,
2013-04-09 10:56:00,82.2,52.4,29.86,North,-999,-999.0,-999.0,36,-99.99,,,-99.99,open2300-1.11,2013-04-09 14:56:00,
2013-04-09 11:02:00,82.0,53.1,29.87,North,-999,-999.0,-999.0,37,-99.99,,,-99.99,open2300-1.11,2013-04-09 15:02:00,
2013-04-09 11:08:00,82.0,52.3,29.87,North,-999,-999.0,-999.0,36,-99.99,,,-99.99,open2300-1.11,2013-04-09 15:08:00,
2013-04-09 11:13:00,81.3,51.7,29.87,North,-999,-999.0,-999.0,36,-99.99,,,-99.99,open2300-1.11,2013-04-09 15:13:00,
2013-04-09 11:18:00,81.1,53.1,29.87,North,-999,-999.0,-999.0,38,-99.99,,,-99.99,open2300-1.11,2013-04-09 15:18:00,
2013-04-09 11:24:00,80.2,50.0,29.87,North,-999,-999.0,-999.0,35,-99.99,,,-99.99,open2300-1.11,2013-04-09 15:24:00,
2013-04-09 11:29:00,79.3,49.1,29.87,North,-999,-999.0,-999.0,35,-99.99,,,-99.99,open2300-1.11,2013-04-09 15:29:00,
2013-04-09 11:35:00,78.6,48.5,29.87,North,-999,-999.0,-999.0,35,-99.99,,,-99.99,open2300-1.11,2013-04-09 15:35:00,
2013-04-09 11:42:00,78.3,46.7,29.86,North,-999,-999.0,-999.0,33,-99.99,,,-99.99,open2300-1.11,2013-04-09 15:42:00,
2013-04-09 11:47:00,77.9,47.1,29.87,North,-999,-999.0,-999.0,34,-99.99,,,-99.99,open2300-1.11,2013-04-09 15:47:00,
2013-04-09 11:53:00,77.7,47.7,29.87,North,-999,-999.0,-999.0,35,-99.99,,,-99.99,open2300-1.11,2013-04-09 15:53:00,
2013-04-09 11:58:00,77.7,46.2,29.86,North,-999,-999.0,-999.0,33,-99.99,,,-99.99,open2300-1.11,2013-04-09 15:58:00,
2013-04-09 12:04:00,77.7,46.2,29.87,North,-999,-999.0,-999.0,33,-99.99,,,-99.99,open2300-1.11,2013-04-09 16:04:00,
2013-04-09 12:10:00,77.9,45.6,29.87,North,-999,-999.0,-999.0,32,-99.99,,,-99.99,open2300-1.11,2013-04-09 16:10:00,
2013-04-09 12:16:00,77.7,46.2,29.87,North,-999,-999.0,-999.0,33,-99.99,,,-99.99,open2300-1.11,2013-04-09 16:16:00,
2013-04-09 12:21:00,77.9,46.3,29.87,North,-999,-999.0,-999.0,33,-99.99,,,-99.99,open2300-1.11,2013-04-09 16:21:00,
2013-04-09 12:26:00,77.9,46.3,29.87,North,-999,-999.0,-999.0,33,-99.99,,,-99.99,open2300-1.11,2013-04-09 16:26:00,
2013-04-09 12:34:00,78.1,45.7,29.87,North,-999,-999.0,-999.0,32,-99.99,,,-99.99,open2300-1.11,2013-04-09 16:34:00,
2013-04-09 12:40:00,78.1,45.0,29.87,North,-999,-999.0,-999.0,31,-99.99,,,-99.99,open2300-1.11,2013-04-09 16:40:00,
2013-04-09 12:47:00,78.1,45.7,29.87,North,-999,-999.0,-999.0,32,-99.99,,,-99.99,open2300-1.11,2013-04-09 16:47:00,
2013-04-09 12:52:00,78.4,46.0,29.86,North,-999,-999.0,-999.0,32,-99.99,,,-99.99,open2300-1.11,2013-04-09 16:52:00,
2013-04-09 12:58:00,78.6,46.2,29.86,North,-999,-999.0,-999.0,32,-99.99,,,-99.99,open2300-1.11,2013-04-09 16:58:00,
2013-04-09 13:04:00,79.0,47.3,29.86,North,-999,-999.0,-999.0,33,-99.99,,,-99.99,open2300-1.11,2013-04-09 17:04:00,
2013-04-09 13:09:00,79.3,46.0,29.86,North,-999,-999.0,-999.0,31,-99.99,,,-99.99,open2300-1.11,2013-04-09 17:09:00,
2013-04-09 13:15:00,79.5,44.4,29.86,North,-999,-999.0,-999.0,29,-99.99,,,-99.99,open2300-1.11,2013-04-09 17:15:00,
2013-04-09 13:22:00,79.5,44.4,29.85,North,-999,-999.0,-999.0,29,-99.99,,,-99.99,open2300-1.11,2013-04-09 17:22:00,
2013-04-09 13:27:00,79.7,43.5,29.85,North,-999,-999.0,-999.0,28,-99.99,,,-99.99,open2300-1.11,2013-04-09 17:27:00,
2013-04-09 13:33:00,79.9,43.7,29.85,North,-999,-999.0,-999.0,28,-99.99,,,-99.99,open2300-1.11,2013-04-09 17:33:00,
2013-04-09 13:40:00,80.2,44.0,29.85,North,-999,-999.0,-999.0,28,-99.99,,,-99.99,open2300-1.11,2013-04-09 17:40:00,
2013-04-09 13:46:00,80.2,42.9,29.85,North,-999,-999.0,-999.0,27,-99.99,,,-99.99,open2300-1.11,2013-04-09 17:46:00,
2013-04-09 13:52:00,80.4,44.2,29.85,North,-999,-999.0,-999.0,28,-99.99,,,-99.99,open2300-1.11,2013-04-09 17:52:00,
2013-04-09 13:58:00,80.8,44.5,29.85,North,-999,-999.0,-999.0,28,-99.99,,,-99.99,open2300-1.11,2013-04-09 17:58:00,
2013-04-09 14:03:00,81.0,43.6,29.85,North,-999,-999.0,-999.0,27,-99.99,,,-99.99,open2300-1.11,2013-04-09 18:03:00,
2013-04-09 14:09:00,81.1,43.7,29.85,North,-999,-999.0,-999.0,27,-99.99,,,-99.99,open2300-1.11,2013-04-09 18:09:00,
2013-04-09 14:14:00,81.3,43.8,29.85,North,-999,-999.0,-999.0,27,-99.99,,,-99.99,open2300-1.11,2013-04-09 18:14:00,
2013-04-09 14:20:00,81.3,42.8,29.85,North,-999,-999.0,-999.0,26,-99.99,,,-99.99,open2300-1.11,2013-04-09 18:20:00,
2013-04-09 14:26:00,81.7,44.1,29.85,North,-999,-999.0,-999.0,27,-99.99,,,-99.99,open2300-1.11,2013-04-09 18:26:00,
2013-04-09 14:31:00,82.0,44.4,29.84,North,-999,-999.0,-999.0,27,-99.99,,,-99.99,open2300-1.11,2013-04-09 18:31:00,
2013-04-09 14:37:00,82.0,41.3,29.84,North,-999,-999.0,-999.0,24,-99.99,,,-99.99,open2300-1.11,2013-04-09 18:37:00,
2013-04-09 14:43:00,82.0,43.4,29.84,North,-999,-999.0,-999.0,26,-99.99,,,-99.99,open2300-1.11,2013-04-09 18:43:00,
2013-04-09 14:48:00,81.7,43.1,29.84,North,-999,-999.0,-999.0,26,-99.99,,,-99.99,open2300-1.11,2013-04-09 18:48:00,
2013-04-09 14:54:00,82.0,41.3,29.84,North,-999,-999.0,-999.0,24,-99.99,,,-99.99,open2300-1.11,2013-04-09 18:54:00,
2013-04-09 15:01:00,81.7,41.0,29.83,North,-999,-999.0,-999.0,24,-99.99,,,-99.99,open2300-1.11,2013-04-09 19:01:00,
2013-04-09 15:07:00,81.5,40.9,29.83,North,-999,-999.0,-999.0,24,-99.99,,,-99.99,open2300-1.11,2013-04-09 19:07:00,
2013-04-09 15:13:00,82.2,41.4,29.84,North,-999,-999.0,-999.0,24,-99.99,,,-99.99,open2300-1.11,2013-04-09 19:13:00,
2013-04-09 15:19:00,82.2,42.5,29.84,North,-999,-999.0,-999.0,25,-99.99,,,-99.99,open2300-1.11,2013-04-09 19:19:00,
2013-04-09 15:25:00,82.8,42.9,29.83,North,-999,-999.0,-999.0,25,-99.99,,,-99.99,open2300-1.11,2013-04-09 19:25:00,
2013-04-09 15:30:00,83.1,42.2,29.82,North,-999,-999.0,-999.0,24,-99.99,,,-99.99,open2300-1.11,2013-04-09 19:30:00,
2013-04-09 15:36:00,83.1,41.1,29.82,North,-999,-999.0,-999.0,23,-99.99,,,-99.99,open2300-1.11,2013-04-09 19:36:00,
2013-04-09 15:42:00,83.1,41.1,29.82,North,-999,-999.0,-999.0,23,-99.99,,,-99.99,open2300-1.11,2013-04-09 19:42:00,
2013-04-09 15:49:00,83.1,41.1,29.82,North,-999,-999.0,-999.0,23,-99.99,,,-99.99,open2300-1.11,2013-04-09 19:49:00,
2013-04-09 15:58:00,82.9,41.0,29.82,North,-999,-999.0,-999.0,23,-99.99,,,-99.99,open2300-1.11,2013-04-09 19:58:00,
2013-04-09 16:04:00,83.1,41.1,29.82,North,-999,-999.0,-999.0,23,-99.99,,,-99.99,open2300-1.11,2013-04-09 20:04:00,
2013-04-09 16:10:00,83.1,43.2,29.82,North,-999,-999.0,-999.0,25,-99.99,,,-99.99,open2300-1.11,2013-04-09 20:10:00,
2013-04-09 16:16:00,83.1,42.2,29.81,North,-999,-999.0,-999.0,24,-99.99,,,-99.99,open2300-1.11,2013-04-09 20:16:00,
2013-04-09 16:22:00,83.1,41.1,29.81,North,-999,-999.0,-999.0,23,-99.99,,,-99.99,open2300-1.11,2013-04-09 20:22:00,
2013-04-09 16:27:00,83.1,41.1,29.82,North,-999,-999.0,-999.0,23,-99.99,,,-99.99,open2300-1.11,2013-04-09 20:27:00,
2013-04-09 16:34:00,83.1,41.1,29.82,North,-999,-999.0,-999.0,23,-99.99,,,-99.99,open2300-1.11,2013-04-09 20:34:00,
2013-04-09 16:40:00,83.3,41.3,29.82,North,-999,-999.0,-999.0,23,-99.99,,,-99.99,open2300-1.11,2013-04-09 20:40:00,
2013-04-09 16:46:00,83.3,41.3,29.81,North,-999,-999.0,-999.0,23,-99.99,,,-99.99,open2300-1.11,2013-04-09 20:46:00,
2013-04-09 16:52:00,82.9,39.9,29.81,North,-999,-999.0,-999.0,22,-99.99,,,-99.99,open2300-1.11,2013-04-09 20:52:00,
2013-04-09 16:59:00,82.9,41.0,29.82,North,-999,-999.0,-999.0,23,-99.99,,,-99.99,open2300-1.11,2013-04-09 20:59:00,
2013-04-09 17:04:00,82.8,39.8,29.82,North,-999,-999.0,-999.0,22,-99.99,,,-99.99,open2300-1.11,2013-04-09 21:04:00,
2013-04-09 17:10:00,82.6,40.7,29.82,North,-999,-999.0,-999.0,23,-99.99,,,-99.99,open2300-1.11,2013-04-09 21:10:00,
2013-04-09 17:17:00,82.6,39.6,29.82,North,-999,-999.0,-999.0,22,-99.99,,,-99.99,open2300-1.11,2013-04-09 21:17:00,
2013-04-09 17:23:00,82.9,41.0,29.82,North,-999,-999.0,-999.0,23,-99.99,,,-99.99,open2300-1.11,2013-04-09 21:23:00,
2013-04-09 17:29:00,82.6,40.7,29.82,North,-999,-999.0,-999.0,23,-99.99,,,-99.99,open2300-1.11,2013-04-09 21:29:00,
2013-04-09 17:37:00,82.4,39.5,29.82,North,-999,-999.0,-999.0,22,-99.99,,,-99.99,open2300-1.11,2013-04-09 21:37:00,
2013-04-09 17:42:00,82.4,40.5,29.82,North,-999,-999.0,-999.0,23,-99.99,,,-99.99,open2300-1.11,2013-04-09 21:42:00,
2013-04-09 17:50:00,82.2,40.4,29.83,North,-999,-999.0,-999.0,23,-99.99,,,-99.99,open2300-1.11,2013-04-09 21:50:00,
2013-04-09 17:56:00,82.0,41.3,29.82,North,-999,-999.0,-999.0,24,-99.99,,,-99.99,open2300-1.11,2013-04-09 21:56:00,
2013-04-09 18:02:00,81.7,40.0,29.82,North,-999,-999.0,-999.0,23,-99.99,,,-99.99,open2300-1.11,2013-04-09 22:02:00,
2013-04-09 18:08:00,81.5,40.9,29.82,North,-999,-999.0,-999.0,24,-99.99,,,-99.99,open2300-1.11,2013-04-09 22:08:00,
2013-04-09 18:13:00,81.3,40.7,29.82,North,-999,-999.0,-999.0,24,-99.99,,,-99.99,open2300-1.11,2013-04-09 22:13:00,
2013-04-09 18:18:00,81.1,42.7,29.82,North,-999,-999.0,-999.0,26,-99.99,,,-99.99,open2300-1.11,2013-04-09 22:18:00,
2013-04-09 18:24:00,80.8,42.4,29.82,North,-999,-999.0,-999.0,26,-99.99,,,-99.99,open2300-1.11,2013-04-09 22:24:00,
2013-04-09 18:31:00,80.4,43.1,29.82,North,-999,-999.0,-999.0,27,-99.99,,,-99.99,open2300-1.11,2013-04-09 22:31:00,
2013-04-09 18:38:00,79.9,42.6,29.82,North,-999,-999.0,-999.0,27,-99.99,,,-99.99,open2300-1.11,2013-04-09 22:38:00,
2013-04-09 18:44:00,79.2,43.0,29.82,North,-999,-999.0,-999.0,28,-99.99,,,-99.99,open2300-1.11,2013-04-09 22:44:00,
2013-04-09 18:50:00,78.4,42.4,29.82,North,-999,-999.0,-999.0,28,-99.99,,,-99.99,open2300-1.11,2013-04-09 22:50:00,
2013-04-09 18:56:00,77.5,42.7,29.82,North,-999,-999.0,-999.0,29,-99.99,,,-99.99,open2300-1.11,2013-04-09 22:56:00,
2013-04-09 19:04:00,76.3,42.7,29.82,North,-999,-999.0,-999.0,30,-99.99,,,-99.99,open2300-1.11,2013-04-09 23:04:00,
2013-04-09 19:09:00,75.7,43.0,29.82,North,-999,-999.0,-999.0,31,-99.99,,,-99.99,open2300-1.11,2013-04-09 23:09:00,
2013-04-09 19:15:00,75.0,42.3,29.82,North,-999,-999.0,-999.0,31,-99.99,,,-99.99,open2300-1.11,2013-04-09 23:15:00,
2013-04-09 19:21:00,74.8,42.2,29.82,North,-999,-999.0,-999.0,31,-99.99,,,-99.99,open2300-1.11,2013-04-09 23:21:00,
2013-04-09 19:26:00,74.1,41.5,29.82,North,-999,-999.0,-999.0,31,-99.99,,,-99.99,open2300-1.11,2013-04-09 23:26:00,
2013-04-09 19:32:00,73.6,41.8,29.83,North,-999,-999.0,-999.0,32,-99.99,,,-99.99,open2300-1.11,2013-04-09 23:32:00,
2013-04-09 19:38:00,72.7,41.8,29.84,North,-999,-999.0,-999.0,33,-99.99,,,-99.99,open2300-1.11,2013-04-09 23:38:00,
2013-04-09 19:44:00,72.3,41.5,29.83,North,-999,-999.0,-999.0,33,-99.99,,,-99.99,open2300-1.11,2013-04-09 23:44:00,
2013-04-09 19:50:00,71.8,41.8,29.84,North,-999,-999.0,-999.0,34,-99.99,,,-99.99,open2300-1.11,2013-04-09 23:50:00,
2013-04-09 19:55:00,71.2,41.3,29.84,North,-999,-999.0,-999.0,34,-99.99,,,-99.99,open2300-1.11,2013-04-09 23:55:00,
2013-04-09 20:01:00,70.9,41.0,29.83,North,-999,-999.0,-999.0,34,-99.99,,,-99.99,open2300-1.11,2013-04-10 00:01:00,
2013-04-09 20:06:00,70.3,41.2,29.83,North,-999,-999.0,-999.0,35,-99.99,,,-99.99,open2300-1.11,2013-04-10 00:06:00,
2013-04-09 20:12:00,69.4,41.1,29.83,North,-999,-999.0,-999.0,36,-99.99,,,-99.99,open2300-1.11,2013-04-10 00:12:00,
2013-04-09 20:18:00,69.1,41.6,29.83,North,-999,-999.0,-999.0,37,-99.99,,,-99.99,open2300-1.11,2013-04-10 00:18:00,
2013-04-09 20:24:00,68.7,41.2,29.84,North,-999,-999.0,-999.0,37,-99.99,,,-99.99,open2300-1.11,2013-04-10 00:24:00,
2013-04-09 20:30:00,68.9,42.1,29.84,North,-999,-999.0,-999.0,38,-99.99,,,-99.99,open2300-1.11,2013-04-10 00:30:00,
2013-04-09 20:35:00,69.1,42.3,29.84,North,-999,-999.0,-999.0,38,-99.99,,,-99.99,open2300-1.11,2013-04-10 00:35:00,
2013-04-09 20:40:00,69.3,43.2,29.84,North,-999,-999.0,-999.0,39,-99.99,,,-99.99,open2300-1.11,2013-04-10 00:40:00,
2013-04-09 20:46:00,69.4,43.4,29.84,North,-999,-999.0,-999.0,39,-99.99,,,-99.99,open2300-1.11,2013-04-10 00:46:00,
2013-04-09 20:51:00,69.3,43.2,29.84,North,-999,-999.0,-999.0,39,-99.99,,,-99.99,open2300-1.11,2013-04-10 00:51:00,
2013-04-09 20:56:00,69.3,43.2,29.85,North,-999,-999.0,-999.0,39,-99.99,,,-99.99,open2300-1.11,2013-04-10 00:56:00,
2013-04-09 21:02:00,68.9,43.6,29.85,North,-999,-999.0,-999.0,40,-99.99,,,-99.99,open2300-1.11,2013-04-10 01:02:00,
2013-04-09 21:08:00,68.7,43.5,29.85,North,-999,-999.0,-999.0,40,-99.99,,,-99.99,open2300-1.11,2013-04-10 01:08:00,
2013-04-09 21:14:00,68.4,43.1,29.85,North,-999,-999.0,-999.0,40,-99.99,,,-99.99,open2300-1.11,2013-04-10 01:14:00,
2013-04-09 21:19:00,68.2,43.6,29.85,North,-999,-999.0,-999.0,41,-99.99,,,-99.99,open2300-1.11,2013-04-10 01:19:00,
2013-04-09 21:25:00,67.8,43.8,29.85,North,-999,-999.0,-999.0,42,-99.99,,,-99.99,open2300-1.11,2013-04-10 01:25:00,
2013-04-09 21:31:00,67.1,43.8,29.86,North,-999,-999.0,-999.0,43,-99.99,,,-99.99,open2300-1.11,2013-04-10 01:31:00,
2013-04-09 21:37:00,66.6,43.9,29.86,North,-999,-999.0,-999.0,44,-99.99,,,-99.99,open2300-1.11,2013-04-10 01:37:00,
2013-04-09 21:44:00,66.0,44.0,29.85,North,-999,-999.0,-999.0,45,-99.99,,,-99.99,open2300-1.11,2013-04-10 01:44:00,
2013-04-09 21:50:00,66.0,44.0,29.84,North,-999,-999.0,-999.0,45,-99.99,,,-99.99,open2300-1.11,2013-04-10 01:50:00,
2013-04-09 21:56:00,65.7,43.6,29.84,North,-999,-999.0,-999.0,45,-99.99,,,-99.99,open2300-1.11,2013-04-10 01:56:00,
2013-04-09 22:02:00,65.1,43.7,29.84,North,-999,-999.0,-999.0,46,-99.99,,,-99.99,open2300-1.11,2013-04-10 02:02:00,
2013-04-09 22:09:00,64.8,43.9,29.83,North,-999,-999.0,-999.0,47,-99.99,,,-99.99,open2300-1.11,2013-04-10 02:09:00,
2013-04-09 22:15:00,64.4,44.2,29.83,North,-999,-999.0,-999.0,48,-99.99,,,-99.99,open2300-1.11,2013-04-10 02:15:00,
2013-04-09 22:20:00,64.2,44.0,29.82,North,-999,-999.0,-999.0,48,-99.99,,,-99.99,open2300-1.11,2013-04-10 02:20:00,
2013-04-09 22:27:00,63.7,44.1,29.82,North,-999,-999.0,-999.0,49,-99.99,,,-99.99,open2300-1.11,2013-04-10 02:27:00,
2013-04-09 22:34:00,63.1,44.7,29.82,North,-999,-999.0,-999.0,51,-99.99,,,-99.99,open2300-1.11,2013-04-10 02:34:00,
2013-04-09 22:40:00,63.0,44.5,29.81,North,-999,-999.0,-999.0,51,-99.99,,,-99.99,open2300-1.11,2013-04-10 02:40:00,
2013-04-09 22:45:00,62.8,44.3,29.81,North,-999,-999.0,-999.0,51,-99.99,,,-99.99,open2300-1.11,2013-04-10 02:45:00,
2013-04-09 22:51:00,63.0,45.0,29.80,North,-999,-999.0,-999.0,52,-99.99,,,-99.99,open2300-1.11,2013-04-10 02:51:00,
2013-04-09 22:59:00,63.3,45.3,29.80,North,-999,-999.0,-999.0,52,-99.99,,,-99.99,open2300-1.11,2013-04-10 02:59:00,
2013-04-09 23:04:00,63.3,45.3,29.80,North,-999,-999.0,-999.0,52,-99.99,,,-99.99,open2300-1.11,2013-04-10 03:04:00,
2013-04-09 23:10:00,63.3,45.3,29.80,North,-999,-999.0,-999.0,52,-99.99,,,-99.99,open2300-1.11,2013-04-10 03:10:00,
2013-04-09 23:15:00,63.3,45.3,29.79,North,-999,-999.0,-999.0,52,-99.99,,,-99.99,open2300-1.11,2013-04-10 03:15:00,
2013-04-09 23:21:00,63.3,45.8,29.78,North,-999,-999.0,-999.0,53,-99.99,,,-99.99,open2300-1.11,2013-04-10 03:21:00,
2013-04-09 23:26:00,63.3,45.8,29.79,North,-999,-999.0,-999.0,53,-99.99,,,-99.99,open2300-1.11,2013-04-10 03:26:00,
2013-04-09 23:32:00,63.5,46.0,29.80,North,-999,-999.0,-999.0,53,-99.99,,,-99.99,open2300-1.11,2013-04-10 03:32:00,
2013-04-09 23:39:00,63.7,46.6,29.79,North,-999,-999.0,-999.0,54,-99.99,,,-99.99,open2300-1.11,2013-04-10 03:39:00,
2013-04-09 23:45:00,64.2,47.1,29.78,North,-999,-999.0,-999.0,54,-99.99,,,-99.99,open2300-1.11,2013-04-10 03:45:00,
2013-04-09 23:50:00,64.6,47.4,29.78,North,-999,-999.0,-999.0,54,-99.99,,,-99.99,open2300-1.11,2013-04-10 03:50:00,
2013-04-09 23:56:00,64.8,47.6,29.78,North,-999,-999.0,-999.0,54,-99.99,,,-99.99,open2300-1.11,2013-04-10 03:56:00,